Time;durP1;ratioP1;P1;durP2;ratioP2;P2;SDS_P1;SDS_P2;PMS_P1;PMS_P2;Temp;Humidity;BMP_temperature;BMP_pressure;BME280_temperature;BME280_humidity;BME280_pressure;Samples;Min_cycle;Max_cycle;Signal;HPM_P1;HPM_P2
2022/04/21 17:52:02;;;;;;;10.88;6.65;;;17.50;53.70;;;;;;5100341;27;20358;-51
2022/04/21 17:54:29;;;;;;;11.10;7.72;;;17.20;55.40;;;;;;5080759;28;20093;-49
2022/04/21 17:56:56;;;;;;;9.57;7.43;;;17.30;55.90;;;;;;5090309;28;20113;-48
2022/04/21 17:59:23;;;;;;;13.15;7.90;;;17.20;56.30;;;;;;5089564;28;20044;-49
2022/04/21 18:01:49;;;;;;;12.02;7.20;;;17.20;57.20;;;;;;5090367;28;20506;-49
2022/04/21 18:04:16;;;;;;;13.00;7.03;;;17.20;57.20;;;;;;5090273;28;20052;-51
2022/04/21 18:06:43;;;;;;;10.60;6.82;;;17.00;57.80;;;;;;5090229;28;20086;-51
2022/04/21 18:09:10;;;;;;;14.13;7.13;;;16.90;58.60;;;;;;5090571;28;20056;-52
2022/04/21 18:11:36;;;;;;;13.20;6.40;;;16.90;59.10;;;;;;5087394;28;20048;-50
2022/04/21 18:14:03;;;;;;;11.65;6.60;;;16.90;59.60;;;;;;5090186;28;20106;-53
2022/04/21 18:16:30;;;;;;;11.25;6.68;;;16.70;59.70;;;;;;5089426;28;20123;-52
2022/04/21 18:18:57;;;;;;;9.45;5.80;;;16.30;61.10;;;;;;5090198;28;20498;-50
2022/04/21 18:21:23;;;;;;;10.05;6.22;;;16.20;61.80;;;;;;5088789;28;20127;-48
2022/04/21 18:23:50;;;;;;;9.27;6.28;;;16.20;61.90;;;;;;5090306;28;20113;-50
2022/04/21 18:26:17;;;;;;;10.27;6.13;;;16.00;62.20;;;;;;5090194;28;20117;-52
2022/04/21 18:28:50;;;;;;;10.30;5.93;;;15.80;62.90;;;;;;5090139;28;20046;-51
2022/04/21 18:31:17;;;;;;;8.45;5.80;;;15.50;63.70;;;;;;5088543;28;20043;-52
2022/04/21 18:33:44;;;;;;;10.20;5.97;;;15.10;64.90;;;;;;5090049;28;20047;-49
2022/04/21 18:36:11;;;;;;;10.15;6.10;;;14.80;66.20;;;;;;5090042;28;20087;-52
2022/04/21 18:38:38;;;;;;;9.90;6.07;;;14.60;67.50;;;;;;5087475;28;20040;-48
2022/04/21 18:41:05;;;;;;;9.50;5.75;;;14.40;68.40;;;;;;5089608;28;20127;-53
2022/04/21 18:43:32;;;;;;;13.43;5.95;;;14.30;69.30;;;;;;5088700;28;20064;-52
2022/04/21 18:45:58;;;;;;;9.23;5.80;;;14.10;70.10;;;;;;5089375;28;20044;-52
2022/04/21 18:48:27;;;;;;;7.35;5.43;;;13.90;71.00;;;;;;5089211;28;20483;-50
2022/04/21 18:50:54;;;;;;;8.50;5.47;;;13.80;71.50;;;;;;5088231;28;20052;-53
2022/04/21 18:53:21;;;;;;;10.00;5.55;;;13.80;72.40;;;;;;5089435;28;20040;-52
2022/04/21 18:55:48;;;;;;;8.80;5.72;;;13.70;72.90;;;;;;5087958;28;20040;-50
2022/04/21 18:58:23;;;;;;;10.50;6.43;;;13.60;73.60;;;;;;5087753;28;20033;-52
2022/04/21 19:00:50;;;;;;;11.48;6.55;;;13.50;74.10;;;;;;5088533;28;20556;-51
2022/04/21 19:03:17;;;;;;;8.82;5.97;;;13.40;75.10;;;;;;5074640;28;20090;-56
2022/04/21 19:05:44;;;;;;;8.50;5.95;;;13.30;75.80;;;;;;5075007;28;20048;-49
2022/04/21 19:08:11;;;;;;;9.07;6.15;;;13.20;76.40;;;;;;5074640;28;20071;-50
2022/04/21 19:10:38;;;;;;;10.07;6.25;;;13.20;76.90;;;;;;5072918;28;20044;-50
2022/04/21 19:13:05;;;;;;;9.90;6.70;;;13.10;77.50;;;;;;5073938;28;20123;-55
2022/04/21 19:15:32;;;;;;;11.50;6.75;;;13.10;78.10;;;;;;5073416;28;20037;-50
2022/04/21 19:17:59;;;;;;;9.05;6.28;;;13.00;78.80;;;;;;5072118;28;20068;-51
2022/04/21 19:20:27;;;;;;;13.43;6.68;;;12.90;79.30;;;;;;5074403;28;20039;-54
2022/04/21 19:22:54;;;;;;;8.20;6.20;;;12.80;80.50;;;;;;5073152;28;20059;-48
2022/04/21 19:25:24;;;;;;;10.82;6.20;;;12.70;80.40;;;;;;5074781;28;20399;-51
2022/04/21 19:27:50;;;;;;;9.25;6.38;;;12.70;81.00;;;;;;5074447;28;20094;-51
2022/04/21 19:30:20;;;;;;;8.38;6.07;;;12.70;81.50;;;;;;5074637;28;20048;-54
2022/04/21 19:32:47;;;;;;;8.05;5.78;;;12.70;81.90;;;;;;5071927;28;20120;-53
2022/04/21 19:35:15;;;;;;;9.38;6.28;;;12.60;82.30;;;;;;5074598;28;20072;-49
2022/04/21 19:37:42;;;;;;;10.27;7.13;;;12.50;82.60;;;;;;5074533;28;20040;-49
2022/04/21 19:40:09;;;;;;;9.43;6.63;;;12.50;83.00;;;;;;5065908;28;20102;-52
2022/04/21 19:42:40;;;;;;;9.02;6.63;;;12.50;83.20;;;;;;5074947;28;20044;-50
2022/04/21 19:45:07;;;;;;;9.05;6.70;;;12.40;83.70;;;;;;5073612;28;20044;-55
2022/04/21 19:47:35;;;;;;;12.70;7.15;;;12.40;84.10;;;;;;5072791;28;20056;-53
2022/04/21 19:50:02;;;;;;;8.95;6.70;;;12.30;84.20;;;;;;5073011;28;20052;-53
2022/04/21 19:52:29;;;;;;;11.57;6.32;;;12.30;84.10;;;;;;5074205;28;20124;-52
2022/04/21 19:54:56;;;;;;;9.35;5.57;;;12.20;84.40;;;;;;5074786;28;20043;-53
2022/04/21 19:57:22;;;;;;;8.50;6.10;;;12.20;84.60;;;;;;5074392;28;20064;-50
2022/04/21 20:00:09;;;;;;;11.48;5.95;;;12.10;84.70;;;;;;5073665;28;20434;-49
2022/04/21 20:02:56;;;;;;;7.32;5.20;;;12.20;84.70;;;;;;5073567;28;20494;-50
2022/04/21 20:10:55;;;;;;;8.45;5.32;;;12.10;85.30;;;;;;5074134;28;20068;-48
2022/04/21 20:13:22;;;;;;;8.68;4.88;;;12.00;85.50;;;;;;5072779;28;20060;-51
2022/04/21 20:15:52;;;;;;;6.57;4.65;;;12.00;85.50;;;;;;5072520;28;20033;-51
2022/04/21 20:18:21;;;;;;;6.28;4.90;;;11.90;85.50;;;;;;5072439;28;20041;-50
2022/04/21 20:23:34;;;;;;;7.43;4.70;;;11.80;85.30;;;;;;5072736;28;20036;-50
2022/04/21 20:28:47;;;;;;;9.13;4.90;;;11.80;85.70;;;;;;5066910;28;20638;-53
2022/04/21 20:31:14;;;;;;;9.10;4.70;;;11.80;86.00;;;;;;5071629;28;20127;-51
2022/04/21 20:33:41;;;;;;;8.60;4.75;;;11.70;86.20;;;;;;5071499;28;20041;-52
2022/04/21 20:36:08;;;;;;;6.85;4.95;;;11.60;86.30;;;;;;5067123;28;20123;-48
2022/04/21 20:38:39;;;;;;;7.63;5.30;;;11.70;86.90;;;;;;5068717;28;20571;-49
2022/04/21 20:41:10;;;;;;;;;;;11.60;86.60;;;;;;5072940;28;20044;-48
2022/04/21 20:43:37;;;;;;;8.05;4.78;;;11.60;87.10;;;;;;5073030;28;20012;-53
2022/04/21 20:46:04;;;;;;;8.60;4.80;;;11.50;87.00;;;;;;5073358;28;20055;-53
2022/04/21 20:48:30;;;;;;;8.50;4.53;;;11.50;87.20;;;;;;5073405;28;20430;-48
2022/04/21 20:50:58;;;;;;;9.43;4.90;;;11.50;87.40;;;;;;5072491;28;20056;-50
2022/04/21 20:53:25;;;;;;;9.75;4.80;;;11.40;87.60;;;;;;5072475;28;20037;-49
2022/04/21 20:55:51;;;;;;;9.40;4.50;;;11.40;87.90;;;;;;5071436;28;20127;-48
2022/04/21 20:58:19;;;;;;;8.57;5.32;;;11.30;88.10;;;;;;5072548;28;20483;-49
2022/04/21 21:00:46;;;;;;;8.23;5.00;;;11.30;88.40;;;;;;5072055;28;20121;-52
2022/04/21 21:03:13;;;;;;;16.67;5.10;;;11.30;88.60;;;;;;5072764;28;20071;-48
2022/04/21 21:05:40;;;;;;;8.05;4.90;;;11.30;88.70;;;;;;5073567;28;20048;-52
2022/04/21 21:08:06;;;;;;;9.25;4.60;;;11.20;88.60;;;;;;5070342;28;20119;-57
2022/04/21 21:10:33;;;;;;;6.10;4.57;;;11.20;88.50;;;;;;5071577;28;20071;-51
2022/04/21 21:13:02;;;;;;;6.63;4.18;;;11.10;88.70;;;;;;5072821;28;20032;-49
2022/04/21 21:15:28;;;;;;;9.38;4.43;;;11.10;88.70;;;;;;5068949;28;20048;-49
2022/04/21 21:17:55;;;;;;;11.52;4.70;;;11.00;89.20;;;;;;5073666;28;20063;-51
2022/04/21 21:20:22;;;;;;;8.75;4.20;;;11.00;88.80;;;;;;5072242;28;20089;-53
2022/04/21 21:22:48;;;;;;;10.38;4.38;;;11.00;89.00;;;;;;5067994;28;20445;-49
